<?xml version="1.0" encoding="UTF-8" standalone="no" ?>
<gpx xmlns="http://www.topografix.com/GPX/1/1" xmlns:xsi="http://www.w3.org/2001/XMLSchema-instance" xsi:schemaLocation="http://www.topografix.com/GPX/1/1 http://www.topografix.com/GPX/1/1/gpx.xsd" version="1.1" creator="VisuGPX - https://www.visugpx.com">
  <metadata>
    <name>Edirne-Zagreb</name>
  </metadata>
  <trk>
    <name><![CDATA[Tour d'Europe: étape 613]]></name>
    <extensions>
      <line xmlns="http://www.topografix.com/GPX/gpx_style/0/2">
        <color>FF00FF</color>
        <width>4</width>
      </line>
    </extensions>
    <trkseg>
      <trkpt lat="42.0801" lon="25.1897">
        <ele>193.734324</ele>
        <time>2022-03-03T07:51:04.390Z</time>
      </trkpt>
      <trkpt lat="42.08028" lon="25.18839">
        <ele>193.948148</ele>
        <time>2022-03-03T07:51:45.384Z</time>
      </trkpt>
      <trkpt lat="42.07876" lon="25.18688">
        <ele>195.13472</ele>
        <time>2022-03-03T07:53:33.428Z</time>
      </trkpt>
      <trkpt lat="42.07673" lon="25.18738">
        <ele>192.233836</ele>
        <time>2022-03-03T07:54:44.402Z</time>
      </trkpt>
      <trkpt lat="42.07472" lon="25.18776">
        <ele>196.173226</ele>
        <time>2022-03-03T07:55:57.386Z</time>
      </trkpt>
      <trkpt lat="42.07306" lon="25.18589">
        <ele>197.496228</ele>
        <time>2022-03-03T07:57:03.394Z</time>
      </trkpt>
      <trkpt lat="42.07165" lon="25.18378">
        <ele>196.116176</ele>
        <time>2022-03-03T07:58:13.389Z</time>
      </trkpt>
      <trkpt lat="42.07093" lon="25.18119">
        <ele>198.462707</ele>
        <time>2022-03-03T07:59:13.390Z</time>
      </trkpt>
      <trkpt lat="42.06949" lon="25.1791">
        <ele>203.599682</ele>
        <time>2022-03-03T08:00:15.402Z</time>
      </trkpt>
      <trkpt lat="42.06814" lon="25.17713">
        <ele>206.027219</ele>
        <time>2022-03-03T08:01:19.427Z</time>
      </trkpt>
      <trkpt lat="42.06684" lon="25.17506">
        <ele>207.421893</ele>
        <time>2022-03-03T08:02:40.390Z</time>
      </trkpt>
      <trkpt lat="42.06571" lon="25.17269">
        <ele>210.272707</ele>
        <time>2022-03-03T08:04:04.423Z</time>
      </trkpt>
      <trkpt lat="42.06462" lon="25.17022">
        <ele>211.763782</ele>
        <time>2022-03-03T08:05:21.400Z</time>
      </trkpt>
      <trkpt lat="42.06345" lon="25.16789">
        <ele>215.841217</ele>
        <time>2022-03-03T08:06:41.391Z</time>
      </trkpt>
      <trkpt lat="42.06209" lon="25.16573">
        <ele>216.453074</ele>
        <time>2022-03-03T08:07:57.406Z</time>
      </trkpt>
      <trkpt lat="42.06106" lon="25.16293">
        <ele>210.70019</ele>
        <time>2022-03-03T08:08:53.402Z</time>
      </trkpt>
      <trkpt lat="42.06013" lon="25.16037">
        <ele>217.45966</ele>
        <time>2022-03-03T08:10:07.433Z</time>
      </trkpt>
      <trkpt lat="42.05906" lon="25.15811">
        <ele>222.938878</ele>
        <time>2022-03-03T08:11:47.384Z</time>
      </trkpt>
      <trkpt lat="42.05777" lon="25.15611">
        <ele>223.380648</ele>
        <time>2022-03-03T08:12:57.400Z</time>
      </trkpt>
      <trkpt lat="42.05624" lon="25.15402">
        <ele>222.375807</ele>
        <time>2022-03-03T08:13:56.402Z</time>
      </trkpt>
      <trkpt lat="42.05465" lon="25.15182">
        <ele>220.386166</ele>
        <time>2022-03-03T08:14:55.401Z</time>
      </trkpt>
      <trkpt lat="42.0532" lon="25.14979">
        <ele>225.233238</ele>
        <time>2022-03-03T08:16:15.399Z</time>
      </trkpt>
      <trkpt lat="42.05178" lon="25.14776">
        <ele>228.478599</ele>
        <time>2022-03-03T08:17:38.397Z</time>
      </trkpt>
      <trkpt lat="42.05041" lon="25.14583">
        <ele>226.712416</ele>
        <time>2022-03-03T08:18:40.395Z</time>
      </trkpt>
      <trkpt lat="42.04901" lon="25.14389">
        <ele>225.749293</ele>
        <time>2022-03-03T08:19:41.394Z</time>
      </trkpt>
      <trkpt lat="42.04751" lon="25.14192">
        <ele>226.346292</ele>
        <time>2022-03-03T08:20:52.389Z</time>
      </trkpt>
      <trkpt lat="42.046" lon="25.13994">
        <ele>227.487985</ele>
        <time>2022-03-03T08:22:11.405Z</time>
      </trkpt>
      <trkpt lat="42.04435" lon="25.13815">
        <ele>226.649896</ele>
        <time>2022-03-03T08:23:25.419Z</time>
      </trkpt>
      <trkpt lat="42.0426" lon="25.1367">
        <ele>225.440703</ele>
        <time>2022-03-03T08:24:28.386Z</time>
      </trkpt>
      <trkpt lat="42.04101" lon="25.13486">
        <ele>227.416906</ele>
        <time>2022-03-03T08:25:37.406Z</time>
      </trkpt>
      <trkpt lat="42.03998" lon="25.13259">
        <ele>226.381649</ele>
        <time>2022-03-03T08:26:45.393Z</time>
      </trkpt>
      <trkpt lat="42.03958" lon="25.12993">
        <ele>230.537138</ele>
        <time>2022-03-03T08:28:12.406Z</time>
      </trkpt>
      <trkpt lat="42.03898" lon="25.12736">
        <ele>232.24447</ele>
        <time>2022-03-03T08:29:32.397Z</time>
      </trkpt>
      <trkpt lat="42.03796" lon="25.12498">
        <ele>235.369627</ele>
        <time>2022-03-03T08:30:51.404Z</time>
      </trkpt>
      <trkpt lat="42.03618" lon="25.12379">
        <ele>233.510044</ele>
        <time>2022-03-03T08:31:58.409Z</time>
      </trkpt>
      <trkpt lat="42.03482" lon="25.1217">
        <ele>238.320846</ele>
        <time>2022-03-03T08:33:08.412Z</time>
      </trkpt>
      <trkpt lat="42.03352" lon="25.11942">
        <ele>241.638735</ele>
        <time>2022-03-03T08:34:23.439Z</time>
      </trkpt>
      <trkpt lat="42.03246" lon="25.11708">
        <ele>239.196839</ele>
        <time>2022-03-03T08:35:26.384Z</time>
      </trkpt>
      <trkpt lat="42.03088" lon="25.11523">
        <ele>239.180853</ele>
        <time>2022-03-03T08:36:26.446Z</time>
      </trkpt>
      <trkpt lat="42.02925" lon="25.11356">
        <ele>242.570053</ele>
        <time>2022-03-03T08:37:26.443Z</time>
      </trkpt>
      <trkpt lat="42.02787" lon="25.11171">
        <ele>246.381329</ele>
        <time>2022-03-03T08:38:26.402Z</time>
      </trkpt>
      <trkpt lat="42.02741" lon="25.10922">
        <ele>245.964242</ele>
        <time>2022-03-03T08:39:35.394Z</time>
      </trkpt>
      <trkpt lat="42.02629" lon="25.10689">
        <ele>249.477572</ele>
        <time>2022-03-03T08:40:45.445Z</time>
      </trkpt>
      <trkpt lat="42.02492" lon="25.1048">
        <ele>252.794563</ele>
        <time>2022-03-03T08:41:58.402Z</time>
      </trkpt>
      <trkpt lat="42.02358" lon="25.10273">
        <ele>249.727909</ele>
        <time>2022-03-03T08:43:03.432Z</time>
      </trkpt>
      <trkpt lat="42.02279" lon="25.10049">
        <ele>250.257964</ele>
        <time>2022-03-03T08:44:18.401Z</time>
      </trkpt>
      <trkpt lat="42.023" lon="25.09781">
        <ele>257.335218</ele>
        <time>2022-03-03T08:46:01.398Z</time>
      </trkpt>
      <trkpt lat="42.02257" lon="25.09516">
        <ele>262.370602</ele>
        <time>2022-03-03T08:47:25.437Z</time>
      </trkpt>
      <trkpt lat="42.02211" lon="25.09265">
        <ele>263.479413</ele>
        <time>2022-03-03T08:48:45.402Z</time>
      </trkpt>
      <trkpt lat="42.02135" lon="25.09018">
        <ele>260.797032</ele>
        <time>2022-03-03T08:50:00.445Z</time>
      </trkpt>
      <trkpt lat="42.02038" lon="25.08749">
        <ele>259.787603</ele>
        <time>2022-03-03T08:51:02.463Z</time>
      </trkpt>
      <trkpt lat="42.01956" lon="25.08506">
        <ele>259.426149</ele>
        <time>2022-03-03T08:52:04.405Z</time>
      </trkpt>
      <trkpt lat="42.01909" lon="25.08228">
        <ele>264.239355</ele>
        <time>2022-03-03T08:53:15.398Z</time>
      </trkpt>
      <trkpt lat="42.0187" lon="25.07969">
        <ele>265.546758</ele>
        <time>2022-03-03T08:54:29.413Z</time>
      </trkpt>
      <trkpt lat="42.01774" lon="25.07742">
        <ele>264.394793</ele>
        <time>2022-03-03T08:55:49.399Z</time>
      </trkpt>
      <trkpt lat="42.01677" lon="25.0751">
        <ele>267.050711</ele>
        <time>2022-03-03T08:57:10.450Z</time>
      </trkpt>
      <trkpt lat="42.01624" lon="25.07243">
        <ele>270.576873</ele>
        <time>2022-03-03T08:58:34.385Z</time>
      </trkpt>
      <trkpt lat="42.01624" lon="25.06974">
        <ele>274.434088</ele>
        <time>2022-03-03T09:00:00.408Z</time>
      </trkpt>
      <trkpt lat="42.01606" lon="25.06699">
        <ele>276.619212</ele>
        <time>2022-03-03T09:01:21.402Z</time>
      </trkpt>
      <trkpt lat="42.01575" lon="25.06419">
        <ele>279.048594</ele>
        <time>2022-03-03T09:02:40.406Z</time>
      </trkpt>
      <trkpt lat="42.01526" lon="25.06154">
        <ele>279.480344</ele>
        <time>2022-03-03T09:04:02.444Z</time>
      </trkpt>
      <trkpt lat="42.0147" lon="25.05892">
        <ele>278.80321</ele>
        <time>2022-03-03T09:05:22.394Z</time>
      </trkpt>
      <trkpt lat="42.01359" lon="25.05658">
        <ele>277.564545</ele>
        <time>2022-03-03T09:06:37.388Z</time>
      </trkpt>
      <trkpt lat="42.01229" lon="25.05431">
        <ele>284.109271</ele>
        <time>2022-03-03T09:07:51.412Z</time>
      </trkpt>
      <trkpt lat="42.01192" lon="25.05155">
        <ele>290.694039</ele>
        <time>2022-03-03T09:09:00.407Z</time>
      </trkpt>
      <trkpt lat="42.01218" lon="25.04874">
        <ele>292.883915</ele>
        <time>2022-03-03T09:10:16.434Z</time>
      </trkpt>
      <trkpt lat="42.01179" lon="25.04605">
        <ele>290.689709</ele>
        <time>2022-03-03T09:11:34.418Z</time>
      </trkpt>
      <trkpt lat="42.01256" lon="25.04359">
        <ele>292.826559</ele>
        <time>2022-03-03T09:12:59.422Z</time>
      </trkpt>
      <trkpt lat="42.01366" lon="25.04136">
        <ele>291.594651</ele>
        <time>2022-03-03T09:14:15.426Z</time>
      </trkpt>
      <trkpt lat="42.01506" lon="25.0392">
        <ele>287.780711</ele>
        <time>2022-03-03T09:15:16.410Z</time>
      </trkpt>
      <trkpt lat="42.01606" lon="25.03662">
        <ele>283.90791</ele>
        <time>2022-03-03T09:16:18.443Z</time>
      </trkpt>
      <trkpt lat="42.01667" lon="25.03397">
        <ele>280.860728</ele>
        <time>2022-03-03T09:17:24.467Z</time>
      </trkpt>
      <trkpt lat="42.01744" lon="25.03151">
        <ele>285.249006</ele>
        <time>2022-03-03T09:18:48.447Z</time>
      </trkpt>
      <trkpt lat="42.01832" lon="25.02908">
        <ele>295.404755</ele>
        <time>2022-03-03T09:20:15.408Z</time>
      </trkpt>
      <trkpt lat="42.01901" lon="25.02636">
        <ele>290.538232</ele>
        <time>2022-03-03T09:21:32.413Z</time>
      </trkpt>
      <trkpt lat="42.01979" lon="25.02374">
        <ele>291.370985</ele>
        <time>2022-03-03T09:22:46.415Z</time>
      </trkpt>
      <trkpt lat="42.02079" lon="25.02117">
        <ele>293.752982</ele>
        <time>2022-03-03T09:23:57.416Z</time>
      </trkpt>
      <trkpt lat="42.02169" lon="25.01849">
        <ele>288.14405</ele>
        <time>2022-03-03T09:24:58.407Z</time>
      </trkpt>
      <trkpt lat="42.02262" lon="25.01596">
        <ele>278.622655</ele>
        <time>2022-03-03T09:25:41.406Z</time>
      </trkpt>
      <trkpt lat="42.02323" lon="25.01298">
        <ele>275.766406</ele>
        <time>2022-03-03T09:26:41.417Z</time>
      </trkpt>
      <trkpt lat="42.02332" lon="25.01027">
        <ele>278.091809</ele>
        <time>2022-03-03T09:27:42.443Z</time>
      </trkpt>
      <trkpt lat="42.02361" lon="25.00754">
        <ele>279.218169</ele>
        <time>2022-03-03T09:28:49.403Z</time>
      </trkpt>
      <trkpt lat="42.02384" lon="25.00471">
        <ele>275.722492</ele>
        <time>2022-03-03T09:29:37.447Z</time>
      </trkpt>
      <trkpt lat="42.02398" lon="25.00197">
        <ele>273.443613</ele>
        <time>2022-03-03T09:30:17.410Z</time>
      </trkpt>
      <trkpt lat="42.02414" lon="24.99891">
        <ele>268.42384</ele>
        <time>2022-03-03T09:31:09.418Z</time>
      </trkpt>
      <trkpt lat="42.02431" lon="24.99599">
        <ele>264.525715</ele>
        <time>2022-03-03T09:31:57.430Z</time>
      </trkpt>
      <trkpt lat="42.0248" lon="24.99299">
        <ele>261.312777</ele>
        <time>2022-03-03T09:32:49.427Z</time>
      </trkpt>
      <trkpt lat="42.02544" lon="24.99008">
        <ele>263.998622</ele>
        <time>2022-03-03T09:33:48.403Z</time>
      </trkpt>
      <trkpt lat="42.02684" lon="24.98965">
        <ele>255.04419</ele>
        <time>2022-03-03T09:34:34.409Z</time>
      </trkpt>
      <trkpt lat="42.02856" lon="24.99134">
        <ele>254.193729</ele>
        <time>2022-03-03T09:35:20.405Z</time>
      </trkpt>
      <trkpt lat="42.0294" lon="24.99387">
        <ele>248.85323</ele>
        <time>2022-03-03T09:36:05.424Z</time>
      </trkpt>
      <trkpt lat="42.03141" lon="24.99522">
        <ele>244.657334</ele>
        <time>2022-03-03T09:36:53.418Z</time>
      </trkpt>
      <trkpt lat="42.03339" lon="24.99628">
        <ele>240.111816</ele>
        <time>2022-03-03T09:37:35.432Z</time>
      </trkpt>
      <trkpt lat="42.03548" lon="24.9973">
        <ele>238.834896</ele>
        <time>2022-03-03T09:38:24.404Z</time>
      </trkpt>
      <trkpt lat="42.03786" lon="24.99783">
        <ele>237.693799</ele>
        <time>2022-03-03T09:39:20.419Z</time>
      </trkpt>
      <trkpt lat="42.04006" lon="24.99886">
        <ele>242.266792</ele>
        <time>2022-03-03T09:40:17.421Z</time>
      </trkpt>
      <trkpt lat="42.04115" lon="25.00005">
        <ele>241.069137</ele>
        <time>2022-03-03T09:41:25.419Z</time>
      </trkpt>
      <trkpt lat="42.04282" lon="24.99836">
        <ele>236.059178</ele>
        <time>2022-03-03T09:42:27.419Z</time>
      </trkpt>
      <trkpt lat="42.04506" lon="24.99724">
        <ele>231.975985</ele>
        <time>2022-03-03T09:43:27.407Z</time>
      </trkpt>
      <trkpt lat="42.04644" lon="24.99517">
        <ele>231.556099</ele>
        <time>2022-03-03T09:44:27.421Z</time>
      </trkpt>
      <trkpt lat="42.04774" lon="24.99295">
        <ele>233.709997</ele>
        <time>2022-03-03T09:45:27.397Z</time>
      </trkpt>
      <trkpt lat="42.04903" lon="24.99078">
        <ele>229.96412</ele>
        <time>2022-03-03T09:46:28.409Z</time>
      </trkpt>
      <trkpt lat="42.05027" lon="24.9886">
        <ele>227.206244</ele>
        <time>2022-03-03T09:47:31.398Z</time>
      </trkpt>
      <trkpt lat="42.05152" lon="24.98645">
        <ele>224.105223</ele>
        <time>2022-03-03T09:48:36.411Z</time>
      </trkpt>
      <trkpt lat="42.05283" lon="24.98424">
        <ele>225.303971</ele>
        <time>2022-03-03T09:49:36.406Z</time>
      </trkpt>
      <trkpt lat="42.05416" lon="24.98201">
        <ele>219.52143</ele>
        <time>2022-03-03T09:50:37.405Z</time>
      </trkpt>
      <trkpt lat="42.0554" lon="24.9799">
        <ele>216.521813</ele>
        <time>2022-03-03T09:51:38.397Z</time>
      </trkpt>
      <trkpt lat="42.05666" lon="24.97778">
        <ele>216.683587</ele>
        <time>2022-03-03T09:52:43.402Z</time>
      </trkpt>
      <trkpt lat="42.05794" lon="24.97558">
        <ele>219.509674</ele>
        <time>2022-03-03T09:53:44.433Z</time>
      </trkpt>
      <trkpt lat="42.05902" lon="24.97318">
        <ele>223.943425</ele>
        <time>2022-03-03T09:54:44.398Z</time>
      </trkpt>
      <trkpt lat="42.06001" lon="24.97064">
        <ele>218.016058</ele>
        <time>2022-03-03T09:55:44.396Z</time>
      </trkpt>
      <trkpt lat="42.06129" lon="24.9685">
        <ele>211.769202</ele>
        <time>2022-03-03T09:56:44.398Z</time>
      </trkpt>
      <trkpt lat="42.06259" lon="24.96634">
        <ele>211.763861</ele>
        <time>2022-03-03T09:57:45.413Z</time>
      </trkpt>
      <trkpt lat="42.06385" lon="24.96423">
        <ele>212.625794</ele>
        <time>2022-03-03T09:58:45.430Z</time>
      </trkpt>
      <trkpt lat="42.06451" lon="24.9615">
        <ele>222.054788</ele>
        <time>2022-03-03T09:59:45.413Z</time>
      </trkpt>
      <trkpt lat="42.06545" lon="24.95916">
        <ele>217.614239</ele>
        <time>2022-03-03T10:00:48.417Z</time>
      </trkpt>
      <trkpt lat="42.0673" lon="24.95822">
        <ele>218.693069</ele>
        <time>2022-03-03T10:02:25.428Z</time>
      </trkpt>
      <trkpt lat="42.0681" lon="24.9565">
        <ele>233.546778</ele>
        <time>2022-03-03T10:04:35.449Z</time>
      </trkpt>
      <trkpt lat="42.06825" lon="24.9542">
        <ele>237.483935</ele>
        <time>2022-03-03T10:35:27.396Z</time>
      </trkpt>
      <trkpt lat="42.06912" lon="24.95162">
        <ele>238.235505</ele>
        <time>2022-03-03T10:36:32.441Z</time>
      </trkpt>
      <trkpt lat="42.0704" lon="24.94927">
        <ele>233.31836</ele>
        <time>2022-03-03T10:37:23.431Z</time>
      </trkpt>
      <trkpt lat="42.07223" lon="24.94767">
        <ele>228.73769</ele>
        <time>2022-03-03T10:38:09.427Z</time>
      </trkpt>
      <trkpt lat="42.07389" lon="24.94627">
        <ele>225.110961</ele>
        <time>2022-03-03T10:38:48.424Z</time>
      </trkpt>
      <trkpt lat="42.07542" lon="24.94468">
        <ele>225.134855</ele>
        <time>2022-03-03T10:39:28.452Z</time>
      </trkpt>
      <trkpt lat="42.07726" lon="24.94261">
        <ele>225.947136</ele>
        <time>2022-03-03T10:40:26.463Z</time>
      </trkpt>
      <trkpt lat="42.07911" lon="24.94059">
        <ele>226.26996</ele>
        <time>2022-03-03T10:41:25.437Z</time>
      </trkpt>
      <trkpt lat="42.08093" lon="24.93864">
        <ele>224.433973</ele>
        <time>2022-03-03T10:42:21.422Z</time>
      </trkpt>
      <trkpt lat="42.08271" lon="24.93658">
        <ele>222.18853</ele>
        <time>2022-03-03T10:43:20.444Z</time>
      </trkpt>
      <trkpt lat="42.08427" lon="24.93465">
        <ele>222.817295</ele>
        <time>2022-03-03T10:44:20.431Z</time>
      </trkpt>
      <trkpt lat="42.0857" lon="24.93249">
        <ele>224.850315</ele>
        <time>2022-03-03T10:45:20.436Z</time>
      </trkpt>
      <trkpt lat="42.087" lon="24.9297">
        <ele>221.093682</ele>
        <time>2022-03-03T10:46:20.470Z</time>
      </trkpt>
      <trkpt lat="42.0882" lon="24.92709">
        <ele>218.880635</ele>
        <time>2022-03-03T10:47:20.434Z</time>
      </trkpt>
      <trkpt lat="42.08947" lon="24.92438">
        <ele>217.378287</ele>
        <time>2022-03-03T10:48:20.439Z</time>
      </trkpt>
      <trkpt lat="42.09067" lon="24.92184">
        <ele>216.495531</ele>
        <time>2022-03-03T10:49:21.440Z</time>
      </trkpt>
      <trkpt lat="42.09182" lon="24.91949">
        <ele>213.085819</ele>
        <time>2022-03-03T10:50:22.463Z</time>
      </trkpt>
      <trkpt lat="42.09294" lon="24.91717">
        <ele>212.370551</ele>
        <time>2022-03-03T10:51:28.432Z</time>
      </trkpt>
      <trkpt lat="42.09398" lon="24.91501">
        <ele>212.183423</ele>
        <time>2022-03-03T10:52:28.423Z</time>
      </trkpt>
      <trkpt lat="42.09512" lon="24.91267">
        <ele>210.98977</ele>
        <time>2022-03-03T10:53:37.430Z</time>
      </trkpt>
      <trkpt lat="42.0958" lon="24.91007">
        <ele>211.960781</ele>
        <time>2022-03-03T10:54:43.419Z</time>
      </trkpt>
      <trkpt lat="42.09632" lon="24.90753">
        <ele>214.172399</ele>
        <time>2022-03-03T10:55:44.412Z</time>
      </trkpt>
      <trkpt lat="42.09727" lon="24.90498">
        <ele>215.344709</ele>
        <time>2022-03-03T10:56:44.425Z</time>
      </trkpt>
      <trkpt lat="42.0981" lon="24.9022">
        <ele>211.173435</ele>
        <time>2022-03-03T10:57:44.415Z</time>
      </trkpt>
      <trkpt lat="42.09876" lon="24.89946">
        <ele>209.62429</ele>
        <time>2022-03-03T10:58:45.434Z</time>
      </trkpt>
      <trkpt lat="42.09944" lon="24.89679">
        <ele>206.180774</ele>
        <time>2022-03-03T10:59:57.427Z</time>
      </trkpt>
      <trkpt lat="42.09994" lon="24.89403">
        <ele>206.334967</ele>
        <time>2022-03-03T11:01:07.471Z</time>
      </trkpt>
      <trkpt lat="42.10046" lon="24.89126">
        <ele>204.386557</ele>
        <time>2022-03-03T11:02:14.466Z</time>
      </trkpt>
      <trkpt lat="42.10048" lon="24.8884">
        <ele>205.990004</ele>
        <time>2022-03-03T11:03:33.524Z</time>
      </trkpt>
      <trkpt lat="42.10025" lon="24.88568">
        <ele>206.560808</ele>
        <time>2022-03-03T11:04:41.458Z</time>
      </trkpt>
      <trkpt lat="42.10003" lon="24.88303">
        <ele>206.844465</ele>
        <time>2022-03-03T11:05:43.464Z</time>
      </trkpt>
      <trkpt lat="42.09974" lon="24.88025">
        <ele>214.097279</ele>
        <time>2022-03-03T11:14:10.461Z</time>
      </trkpt>
      <trkpt lat="42.09981" lon="24.87744">
        <ele>221.106261</ele>
        <time>2022-03-03T11:15:16.480Z</time>
      </trkpt>
      <trkpt lat="42.10027" lon="24.87453">
        <ele>217.828472</ele>
        <time>2022-03-03T11:16:18.437Z</time>
      </trkpt>
      <trkpt lat="42.10036" lon="24.87182">
        <ele>210.398341</ele>
        <time>2022-03-03T11:17:18.443Z</time>
      </trkpt>
      <trkpt lat="42.09996" lon="24.86894">
        <ele>212.38536</ele>
        <time>2022-03-03T11:18:19.454Z</time>
      </trkpt>
      <trkpt lat="42.10023" lon="24.86603">
        <ele>211.690759</ele>
        <time>2022-03-03T11:19:15.429Z</time>
      </trkpt>
      <trkpt lat="42.102" lon="24.86725">
        <ele>208.850802</ele>
        <time>2022-03-03T11:21:02.422Z</time>
      </trkpt>
      <trkpt lat="42.10332" lon="24.86623">
        <ele>204.12147</ele>
        <time>2022-03-03T11:21:51.457Z</time>
      </trkpt>
      <trkpt lat="42.10389" lon="24.86349">
        <ele>202.903382</ele>
        <time>2022-03-03T11:22:45.429Z</time>
      </trkpt>
      <trkpt lat="42.10518" lon="24.86127">
        <ele>202.341504</ele>
        <time>2022-03-03T11:23:45.443Z</time>
      </trkpt>
      <trkpt lat="42.10639" lon="24.85913">
        <ele>203.020661</ele>
        <time>2022-03-03T11:24:45.430Z</time>
      </trkpt>
      <trkpt lat="42.10765" lon="24.85696">
        <ele>201.905766</ele>
        <time>2022-03-03T11:25:45.440Z</time>
      </trkpt>
      <trkpt lat="42.10897" lon="24.85461">
        <ele>206.691312</ele>
        <time>2022-03-03T11:26:45.464Z</time>
      </trkpt>
      <trkpt lat="42.11012" lon="24.85198">
        <ele>209.98145</ele>
        <time>2022-03-03T11:27:45.438Z</time>
      </trkpt>
      <trkpt lat="42.1109" lon="24.84934">
        <ele>208.709468</ele>
        <time>2022-03-03T11:28:46.450Z</time>
      </trkpt>
      <trkpt lat="42.11182" lon="24.84643">
        <ele>206.725183</ele>
        <time>2022-03-03T11:29:44.404Z</time>
      </trkpt>
      <trkpt lat="42.1127" lon="24.84343">
        <ele>203.629798</ele>
        <time>2022-03-03T11:30:44.411Z</time>
      </trkpt>
      <trkpt lat="42.11353" lon="24.84071">
        <ele>206.719599</ele>
        <time>2022-03-03T11:31:44.431Z</time>
      </trkpt>
      <trkpt lat="42.11433" lon="24.83795">
        <ele>206.344658</ele>
        <time>2022-03-03T11:32:44.414Z</time>
      </trkpt>
      <trkpt lat="42.11535" lon="24.83551">
        <ele>202.480655</ele>
        <time>2022-03-03T11:33:44.417Z</time>
      </trkpt>
      <trkpt lat="42.11694" lon="24.8338">
        <ele>198.709733</ele>
        <time>2022-03-03T11:34:44.427Z</time>
      </trkpt>
      <trkpt lat="42.1185" lon="24.83194">
        <ele>194.091071</ele>
        <time>2022-03-03T11:35:44.426Z</time>
      </trkpt>
      <trkpt lat="42.12013" lon="24.83007">
        <ele>193.118186</ele>
        <time>2022-03-03T11:36:45.446Z</time>
      </trkpt>
      <trkpt lat="42.12172" lon="24.82822">
        <ele>194.381014</ele>
        <time>2022-03-03T11:37:48.435Z</time>
      </trkpt>
      <trkpt lat="42.12335" lon="24.82639">
        <ele>198.903976</ele>
        <time>2022-03-03T11:38:50.435Z</time>
      </trkpt>
      <trkpt lat="42.1249" lon="24.82458">
        <ele>201.57717</ele>
        <time>2022-03-03T11:39:50.443Z</time>
      </trkpt>
      <trkpt lat="42.1266" lon="24.82264">
        <ele>202.205615</ele>
        <time>2022-03-03T11:40:50.443Z</time>
      </trkpt>
      <trkpt lat="42.12843" lon="24.82054">
        <ele>197.499894</ele>
        <time>2022-03-03T11:41:48.454Z</time>
      </trkpt>
      <trkpt lat="42.13023" lon="24.81849">
        <ele>194.243274</ele>
        <time>2022-03-03T11:42:47.425Z</time>
      </trkpt>
      <trkpt lat="42.13186" lon="24.81662">
        <ele>196.244959</ele>
        <time>2022-03-03T11:43:48.423Z</time>
      </trkpt>
      <trkpt lat="42.13348" lon="24.81477">
        <ele>195.990353</ele>
        <time>2022-03-03T11:44:53.437Z</time>
      </trkpt>
      <trkpt lat="42.13507" lon="24.81296">
        <ele>197.258766</ele>
        <time>2022-03-03T11:46:00.447Z</time>
      </trkpt>
      <trkpt lat="42.13662" lon="24.81118">
        <ele>198.76558</ele>
        <time>2022-03-03T11:47:01.428Z</time>
      </trkpt>
      <trkpt lat="42.13824" lon="24.80932">
        <ele>199.597129</ele>
        <time>2022-03-03T11:48:01.445Z</time>
      </trkpt>
      <trkpt lat="42.13989" lon="24.80743">
        <ele>198.922294</ele>
        <time>2022-03-03T11:49:01.446Z</time>
      </trkpt>
      <trkpt lat="42.14152" lon="24.80554">
        <ele>200.441495</ele>
        <time>2022-03-03T11:50:01.466Z</time>
      </trkpt>
      <trkpt lat="42.14328" lon="24.80495">
        <ele>198.542301</ele>
        <time>2022-03-03T11:52:55.469Z</time>
      </trkpt>
      <trkpt lat="42.14547" lon="24.80572">
        <ele>192.592789</ele>
        <time>2022-03-03T11:53:55.462Z</time>
      </trkpt>
      <trkpt lat="42.14761" lon="24.80644">
        <ele>192.226</ele>
        <time>2022-03-03T11:54:46.491Z</time>
      </trkpt>
      <trkpt lat="42.14872" lon="24.80805">
        <ele>192.755337</ele>
        <time>2022-03-03T11:55:37.413Z</time>
      </trkpt>
      <trkpt lat="42.14763" lon="24.80681">
        <ele>199.946182</ele>
        <time>2022-03-03T11:56:50.423Z</time>
      </trkpt>
      <trkpt lat="42.14757" lon="24.80387">
        <ele>197.691163</ele>
        <time>2022-03-03T11:57:50.432Z</time>
      </trkpt>
      <trkpt lat="42.14779" lon="24.80102">
        <ele>193.549912</ele>
        <time>2022-03-03T11:58:35.440Z</time>
      </trkpt>
      <trkpt lat="42.148" lon="24.79824">
        <ele>194.270369</ele>
        <time>2022-03-03T11:59:24.466Z</time>
      </trkpt>
      <trkpt lat="42.14817" lon="24.79541">
        <ele>197.048839</ele>
        <time>2022-03-03T12:00:24.466Z</time>
      </trkpt>
      <trkpt lat="42.14828" lon="24.79269">
        <ele>199.893531</ele>
        <time>2022-03-03T12:01:29.430Z</time>
      </trkpt>
      <trkpt lat="42.14854" lon="24.78972">
        <ele>204.442244</ele>
        <time>2022-03-03T12:05:04.414Z</time>
      </trkpt>
      <trkpt lat="42.1487" lon="24.78692">
        <ele>209.171275</ele>
        <time>2022-03-03T12:06:12.440Z</time>
      </trkpt>
      <trkpt lat="42.14881" lon="24.78397">
        <ele>211.928779</ele>
        <time>2022-03-03T12:07:20.426Z</time>
      </trkpt>
      <trkpt lat="42.14904" lon="24.78097">
        <ele>210.549528</ele>
        <time>2022-03-03T12:08:16.465Z</time>
      </trkpt>
      <trkpt lat="42.14924" lon="24.77804">
        <ele>200.603364</ele>
        <time>2022-03-03T12:09:19.481Z</time>
      </trkpt>
      <trkpt lat="42.14925" lon="24.77504">
        <ele>203.552271</ele>
        <time>2022-03-03T12:10:18.442Z</time>
      </trkpt>
      <trkpt lat="42.14868" lon="24.77206">
        <ele>212.036346</ele>
        <time>2022-03-03T12:11:15.433Z</time>
      </trkpt>
      <trkpt lat="42.14815" lon="24.7692">
        <ele>211.608412</ele>
        <time>2022-03-03T12:12:11.431Z</time>
      </trkpt>
      <trkpt lat="42.14755" lon="24.7661">
        <ele>209.848681</ele>
        <time>2022-03-03T12:13:08.444Z</time>
      </trkpt>
      <trkpt lat="42.14702" lon="24.763">
        <ele>217.729339</ele>
        <time>2022-03-03T12:15:06.433Z</time>
      </trkpt>
      <trkpt lat="42.14655" lon="24.76048">
        <ele>228.008999</ele>
        <time>2022-03-03T12:16:19.425Z</time>
      </trkpt>
      <trkpt lat="42.14771" lon="24.75868">
        <ele>225.765915</ele>
        <time>2022-03-03T12:17:44.429Z</time>
      </trkpt>
      <trkpt lat="42.14717" lon="24.75604">
        <ele>220.734155</ele>
        <time>2022-03-03T12:18:57.449Z</time>
      </trkpt>
      <trkpt lat="42.14674" lon="24.75405">
        <ele>230.975374</ele>
        <time>2022-03-03T12:21:38.417Z</time>
      </trkpt>
      <trkpt lat="42.1473" lon="24.75404">
        <ele>230.975374</ele>
        <time>2022-03-03T12:44:10.295Z</time>
      </trkpt>
    </trkseg>
  </trk>
</gpx>